Time;durP1;ratioP1;P1;durP2;ratioP2;P2;SDS_P1;SDS_P2;PMS_P1;PMS_P2;Temp;Humidity;BMP_temperature;BMP_pressure;BME280_temperature;BME280_humidity;BME280_pressure;Samples;Min_cycle;Max_cycle;Signal;HPM_P1;HPM_P2
2022/08/29 00:00:12;;;;;;;8.50;3.25;;;17.80;99.90;;;;;;4935365;29;20047;-62
2022/08/29 00:02:38;;;;;;;9.30;3.03;;;17.80;99.90;;;;;;4935454;29;20059;-60
2022/08/29 00:05:05;;;;;;;6.47;3.15;;;17.80;99.90;;;;;;4935427;29;20051;-60
2022/08/29 00:07:31;;;;;;;8.77;3.25;;;17.80;99.90;;;;;;4933655;29;20052;-61
2022/08/29 00:09:57;;;;;;;7.00;3.05;;;17.80;99.90;;;;;;4935227;29;20040;-60
2022/08/29 00:12:22;;;;;;;7.88;3.20;;;17.80;99.90;;;;;;4934993;29;20055;-60
2022/08/29 00:14:48;;;;;;;7.85;3.47;;;17.80;99.90;;;;;;4950017;29;20149;-60
2022/08/29 00:17:14;;;;;;;8.88;3.30;;;17.80;99.90;;;;;;4934839;29;20048;-61
2022/08/29 00:19:39;;;;;;;6.57;3.00;;;17.80;99.90;;;;;;4933963;29;20043;-60
2022/08/29 00:22:05;;;;;;;9.40;3.40;;;17.70;99.90;;;;;;4935283;29;20052;-60
2022/08/29 00:24:31;;;;;;;7.43;3.22;;;17.70;99.90;;;;;;4934665;29;20083;-60
2022/08/29 00:27:00;;;;;;;7.72;3.30;;;17.70;99.90;;;;;;4934778;29;20047;-60
2022/08/29 00:29:27;;;;;;;6.95;3.65;;;17.70;99.90;;;;;;4934808;29;20040;-60
2022/08/29 00:31:53;;;;;;;11.00;4.28;;;17.70;99.90;;;;;;4934902;29;20055;-61
2022/08/29 00:34:19;;;;;;;7.30;3.10;;;17.70;99.90;;;;;;4934658;29;20050;-61
2022/08/29 00:36:44;;;;;;;7.47;3.10;;;17.70;99.90;;;;;;4934014;29;20074;-59
2022/08/29 00:39:10;;;;;;;7.85;3.13;;;17.70;99.90;;;;;;4934837;29;20067;-61
2022/08/29 00:41:36;;;;;;;6.78;2.85;;;17.60;99.90;;;;;;4934977;29;20131;-60
2022/08/29 00:44:03;;;;;;;12.82;3.70;;;17.60;99.90;;;;;;4949688;29;20056;-59
2022/08/29 00:46:41;;;;;;;6.80;3.20;;;17.60;99.90;;;;;;4934596;29;20066;-61
2022/08/29 00:49:22;;;;;;;6.47;3.05;;;17.50;99.90;;;;;;4934632;29;20047;-62
2022/08/29 00:51:48;;;;;;;9.25;3.10;;;17.60;99.90;;;;;;4934808;29;20048;-63
2022/08/29 00:54:14;;;;;;;8.57;2.90;;;17.60;99.90;;;;;;4933804;29;20051;-61
2022/08/29 00:56:41;;;;;;;7.70;3.10;;;17.60;99.90;;;;;;4933287;29;20053;-61
2022/08/29 00:59:24;;;;;;;6.95;2.67;;;17.50;99.90;;;;;;4933322;29;20134;-62
2022/08/29 01:01:50;;;;;;;4.85;2.60;;;17.60;99.90;;;;;;4934794;29;20059;-61
2022/08/29 01:04:17;;;;;;;8.00;2.60;;;17.50;99.90;;;;;;4934624;29;20405;-59
2022/08/29 01:06:43;;;;;;;7.22;2.75;;;17.50;99.90;;;;;;4934359;29;20040;-61
2022/08/29 01:09:10;;;;;;;9.25;3.03;;;17.60;99.90;;;;;;4934546;29;20055;-61
2022/08/29 01:14:23;;;;;;;6.30;2.90;;;17.60;99.90;;;;;;4933307;29;20047;-66
2022/08/29 01:16:51;;;;;;;7.00;2.75;;;17.60;99.90;;;;;;4934670;29;20047;-61
2022/08/29 01:19:43;;;;;;;7.55;2.75;;;17.60;99.90;;;;;;4934869;29;20052;-61
2022/08/29 01:22:32;;;;;;;6.28;2.45;;;17.60;99.90;;;;;;4933318;29;20058;-62
2022/08/29 01:25:00;;;;;;;8.95;2.53;;;17.70;99.90;;;;;;4934578;29;20043;-62
2022/08/29 01:27:28;;;;;;;7.18;2.15;;;17.60;99.90;;;;;;4934242;29;20107;-60
2022/08/29 01:29:55;;;;;;;7.90;2.45;;;17.60;99.90;;;;;;4934386;29;20086;-63
2022/08/29 01:32:24;;;;;;;5.28;2.10;;;17.60;99.90;;;;;;4933360;29;20059;-61
2022/08/29 01:34:50;;;;;;;7.15;2.30;;;17.60;99.90;;;;;;4934548;29;20047;-61
2022/08/29 01:37:17;;;;;;;4.63;2.17;;;17.60;99.90;;;;;;4934125;29;20054;-61
2022/08/29 01:39:43;;;;;;;7.72;2.30;;;17.50;99.90;;;;;;4952610;29;20396;-61
2022/08/29 01:42:13;;;;;;;8.10;2.63;;;17.50;99.90;;;;;;4938048;29;20087;-61
2022/08/29 01:44:39;;;;;;;5.18;2.00;;;17.50;99.90;;;;;;4937759;29;20052;-61
2022/08/29 01:47:06;;;;;;;5.88;2.28;;;17.50;99.90;;;;;;4937960;29;20059;-61
2022/08/29 01:49:34;;;;;;;7.68;2.22;;;17.50;99.90;;;;;;4952451;29;20055;-61
2022/08/29 01:52:01;;;;;;;8.10;2.47;;;17.50;99.90;;;;;;4937822;29;20056;-61
2022/08/29 01:54:27;;;;;;;7.85;2.20;;;17.50;99.90;;;;;;4937850;29;20047;-61
2022/08/29 01:56:53;;;;;;;9.98;2.30;;;17.50;99.90;;;;;;4937640;29;20118;-61
2022/08/29 01:59:25;;;;;;;9.25;2.50;;;17.50;99.90;;;;;;4937341;29;20146;-61
2022/08/29 02:02:04;;;;;;;9.73;2.70;;;17.50;99.90;;;;;;4937460;29;20123;-59
2022/08/29 02:04:31;;;;;;;8.10;2.45;;;17.50;99.90;;;;;;4937114;29;20074;-59
2022/08/29 02:06:57;;;;;;;8.65;2.55;;;17.40;99.90;;;;;;4937299;29;20098;-59
2022/08/29 02:09:24;;;;;;;7.75;2.97;;;17.40;99.90;;;;;;4920208;29;20407;-59
2022/08/29 02:11:51;;;;;;;12.13;3.38;;;17.40;99.90;;;;;;4936795;29;20055;-59
2022/08/29 02:14:17;;;;;;;10.32;2.72;;;17.40;99.90;;;;;;4935658;29;20545;-59
2022/08/29 02:16:43;;;;;;;11.73;2.90;;;17.40;99.90;;;;;;4936855;29;20098;-59
2022/08/29 02:19:08;;;;;;;8.80;2.63;;;17.30;99.90;;;;;;4936968;29;20096;-60
2022/08/29 02:21:34;;;;;;;8.05;2.55;;;17.30;99.90;;;;;;4935385;29;20039;-59
2022/08/29 02:24:02;;;;;;;11.18;3.10;;;17.30;99.90;;;;;;4935736;29;20470;-58
2022/08/29 02:26:27;;;;;;;9.88;2.70;;;17.30;99.90;;;;;;4936587;29;20438;-59
2022/08/29 02:28:54;;;;;;;8.98;2.70;;;17.20;99.90;;;;;;4936563;29;20050;-58
2022/08/29 02:31:21;;;;;;;9.80;3.20;;;17.30;99.90;;;;;;4936661;29;20196;-58
2022/08/29 02:33:48;;;;;;;11.90;3.35;;;17.20;99.90;;;;;;4936311;29;20130;-59
2022/08/29 02:36:14;;;;;;;5.25;2.42;;;17.30;99.90;;;;;;4936845;29;20048;-59
2022/08/29 02:38:40;;;;;;;13.27;3.08;;;17.30;99.90;;;;;;4936320;29;20422;-59
2022/08/29 02:41:06;;;;;;;6.80;2.60;;;17.30;99.90;;;;;;4936708;29;20048;-58
2022/08/29 02:43:32;;;;;;;10.32;2.78;;;17.30;99.90;;;;;;4935160;29;20044;-63
2022/08/29 02:45:58;;;;;;;10.77;2.97;;;17.30;99.90;;;;;;4936703;29;20052;-59
2022/08/29 02:48:25;;;;;;;8.40;2.72;;;17.30;99.90;;;;;;4935965;29;20498;-58
2022/08/29 02:50:53;;;;;;;8.07;3.03;;;17.30;99.90;;;;;;4936218;29;20058;-59
2022/08/29 02:53:23;;;;;;;11.23;3.20;;;17.30;99.90;;;;;;4935824;29;20557;-59
2022/08/29 02:55:50;;;;;;;11.82;3.25;;;17.30;99.90;;;;;;4935958;29;20087;-61
2022/08/29 02:58:17;;;;;;;11.18;3.17;;;17.30;99.90;;;;;;4935177;29;20039;-60
2022/08/29 03:00:43;;;;;;;8.77;3.08;;;17.30;99.90;;;;;;4935492;29;20048;-60
2022/08/29 03:03:09;;;;;;;6.82;2.55;;;17.30;99.90;;;;;;4935152;29;20048;-66
2022/08/29 03:05:36;;;;;;;12.30;2.90;;;17.30;99.90;;;;;;4934865;29;20043;-64
2022/08/29 03:08:07;;;;;;;13.57;3.10;;;17.20;99.90;;;;;;4935035;29;20047;-59
2022/08/29 03:10:33;;;;;;;8.20;3.10;;;17.20;99.90;;;;;;4936183;29;20131;-60
2022/08/29 03:12:59;;;;;;;7.13;3.00;;;17.20;99.90;;;;;;4935833;29;20130;-60
2022/08/29 03:15:25;;;;;;;8.60;2.88;;;17.20;99.90;;;;;;4934969;29;20107;-59
2022/08/29 03:17:51;;;;;;;9.10;2.90;;;17.20;99.90;;;;;;4934670;29;20047;-59
2022/08/29 03:20:19;;;;;;;7.38;2.80;;;17.20;99.90;;;;;;4935990;29;20035;-59
2022/08/29 03:22:46;;;;;;;9.52;2.83;;;17.20;99.90;;;;;;4918663;29;20056;-60
2022/08/29 03:25:13;;;;;;;7.90;2.63;;;17.20;99.90;;;;;;4935750;29;20127;-58
2022/08/29 03:27:40;;;;;;;8.45;2.88;;;17.10;99.90;;;;;;4935548;29;20087;-58
2022/08/29 03:30:11;;;;;;;10.15;2.90;;;17.10;99.90;;;;;;4934854;29;20464;-59
2022/08/29 03:32:38;;;;;;;10.30;3.15;;;17.10;99.90;;;;;;4919139;29;20047;-59
2022/08/29 03:35:05;;;;;;;12.77;2.78;;;17.10;99.90;;;;;;4935376;29;20047;-58
2022/08/29 03:37:31;;;;;;;12.52;2.70;;;17.10;99.90;;;;;;4935782;29;20051;-58
2022/08/29 03:39:57;;;;;;;9.95;2.95;;;17.10;99.90;;;;;;4935358;29;20048;-59
2022/08/29 03:42:23;;;;;;;5.97;2.50;;;17.00;99.90;;;;;;4935581;29;20052;-58
2022/08/29 03:44:49;;;;;;;11.18;2.97;;;17.00;99.90;;;;;;4935259;29;20049;-60
2022/08/29 03:47:15;;;;;;;7.45;2.25;;;17.10;99.90;;;;;;4935718;29;20380;-58
2022/08/29 03:49:41;;;;;;;10.05;2.40;;;17.10;99.90;;;;;;4934102;29;20126;-62
2022/08/29 03:52:08;;;;;;;9.18;2.58;;;17.00;99.90;;;;;;4918650;29;20071;-59
2022/08/29 03:54:35;;;;;;;6.50;2.47;;;16.90;99.90;;;;;;4935675;29;20054;-60
2022/08/29 03:57:02;;;;;;;8.15;2.67;;;16.90;99.90;;;;;;4934918;29;20055;-59
2022/08/29 03:59:28;;;;;;;9.00;2.78;;;16.90;99.90;;;;;;4933204;29;20509;-60
2022/08/29 04:01:54;;;;;;;10.45;2.58;;;16.90;99.90;;;;;;4917881;29;20142;-59
2022/08/29 04:07:05;;;;;;;9.70;2.83;;;16.90;99.90;;;;;;4933852;29;20051;-59
2022/08/29 04:09:31;;;;;;;7.38;2.65;;;16.90;99.90;;;;;;4934835;29;20051;-58
2022/08/29 04:11:57;;;;;;;8.77;2.60;;;16.90;99.90;;;;;;4949721;29;20048;-59
2022/08/29 04:14:24;;;;;;;12.40;2.63;;;16.90;99.90;;;;;;4933763;29;20070;-58
2022/08/29 04:16:49;;;;;;;9.82;2.55;;;16.90;99.90;;;;;;4933375;29;20059;-59
2022/08/29 04:19:19;;;;;;;7.97;2.63;;;16.80;99.90;;;;;;4935013;29;20051;-59
2022/08/29 04:21:47;;;;;;;6.57;2.50;;;16.80;99.90;;;;;;4934713;29;20106;-58
2022/08/29 04:24:14;;;;;;;7.50;2.20;;;16.80;99.90;;;;;;4934951;29;20442;-58
2022/08/29 04:26:40;;;;;;;7.97;2.13;;;16.80;99.90;;;;;;4933543;29;20102;-59
2022/08/29 04:29:08;;;;;;;7.88;2.97;;;16.80;99.90;;;;;;4934370;29;20371;-59
2022/08/29 04:31:35;;;;;;;7.88;2.30;;;16.80;99.90;;;;;;4934860;29;20111;-60
2022/08/29 04:34:02;;;;;;;7.25;2.70;;;16.70;99.90;;;;;;4933043;29;20552;-60
2022/08/29 04:36:28;;;;;;;9.40;2.70;;;16.80;99.90;;;;;;4934668;29;20419;-59
2022/08/29 04:38:54;;;;;;;12.02;3.10;;;16.80;99.90;;;;;;4934345;29;20044;-60
2022/08/29 04:41:20;;;;;;;8.45;2.83;;;16.80;99.90;;;;;;4934583;29;20058;-59
2022/08/29 04:43:47;;;;;;;10.40;2.40;;;16.80;99.90;;;;;;4934574;29;20083;-59
2022/08/29 04:46:14;;;;;;;13.13;2.95;;;16.80;99.90;;;;;;4934586;29;20048;-60
2022/08/29 04:48:39;;;;;;;8.57;2.90;;;16.80;99.90;;;;;;4933153;29;20123;-60
2022/08/29 04:51:05;;;;;;;13.93;3.13;;;16.80;99.90;;;;;;4934268;29;20138;-59
2022/08/29 04:53:31;;;;;;;9.30;2.60;;;16.80;99.90;;;;;;4934677;29;20047;-59
2022/08/29 04:55:58;;;;;;;8.43;2.80;;;16.80;99.90;;;;;;4934366;29;20043;-60
2022/08/29 04:58:24;;;;;;;8.43;3.60;;;16.90;99.90;;;;;;4934548;29;20043;-59
2022/08/29 05:00:51;;;;;;;9.98;2.53;;;16.80;99.90;;;;;;4917241;29;20413;-63
2022/08/29 05:03:17;;;;;;;10.65;3.50;;;16.80;99.90;;;;;;4934505;29;20055;-59
2022/08/29 05:05:43;;;;;;;9.05;3.45;;;16.80;99.90;;;;;;4902569;29;20058;-58
2022/08/29 05:08:08;;;;;;;7.68;3.00;;;16.80;99.90;;;;;;4949032;29;20048;-60
2022/08/29 05:10:34;;;;;;;10.70;2.95;;;16.90;99.90;;;;;;4934335;29;20048;-61
2022/08/29 05:13:00;;;;;;;7.07;2.60;;;16.90;99.90;;;;;;4937029;29;20055;-61
2022/08/29 05:15:27;;;;;;;11.60;3.00;;;16.90;99.90;;;;;;4922134;29;20391;-61
2022/08/29 05:17:54;;;;;;;8.52;2.60;;;16.90;99.90;;;;;;4922022;29;20054;-66
2022/08/29 05:20:20;;;;;;;11.25;3.15;;;17.00;99.90;;;;;;4905838;29;20498;-60
2022/08/29 05:22:47;;;;;;;7.93;2.83;;;17.00;99.90;;;;;;4921912;29;20055;-58
2022/08/29 05:25:14;;;;;;;6.80;2.45;;;17.00;99.90;;;;;;4936674;29;20047;-60
2022/08/29 05:27:41;;;;;;;9.10;2.95;;;17.00;99.90;;;;;;4937884;29;20051;-59
2022/08/29 05:30:07;;;;;;;6.53;2.80;;;17.00;99.90;;;;;;4951951;29;20055;-60
2022/08/29 05:32:33;;;;;;;8.48;2.97;;;17.00;99.90;;;;;;4936478;29;20058;-59
2022/08/29 05:34:59;;;;;;;8.20;2.90;;;17.00;99.90;;;;;;4937496;29;20048;-59
2022/08/29 05:37:25;;;;;;;6.75;3.15;;;17.00;99.90;;;;;;4921084;29;20044;-58
2022/08/29 05:39:51;;;;;;;6.90;2.58;;;17.00;99.90;;;;;;4937741;29;20131;-59
2022/08/29 05:42:20;;;;;;;5.85;2.50;;;17.00;99.90;;;;;;4936738;29;20083;-59
2022/08/29 05:44:47;;;;;;;6.43;2.55;;;17.00;99.90;;;;;;4937723;29;20058;-59
2022/08/29 05:47:14;;;;;;;7.60;2.63;;;17.00;99.90;;;;;;4936469;29;20524;-59
2022/08/29 05:49:43;;;;;;;7.05;2.70;;;17.10;99.90;;;;;;4937505;29;20464;-59
2022/08/29 05:52:09;;;;;;;6.72;2.67;;;17.10;99.90;;;;;;4936029;29;20119;-59
2022/08/29 05:54:37;;;;;;;7.20;2.47;;;17.10;99.90;;;;;;4937382;29;20040;-59
2022/08/29 05:57:05;;;;;;;6.68;2.38;;;17.10;99.90;;;;;;4937187;29;20126;-59
2022/08/29 05:59:30;;;;;;;7.55;3.20;;;17.20;99.90;;;;;;4937240;29;20142;-59
2022/08/29 06:01:56;;;;;;;9.07;2.70;;;17.20;99.90;;;;;;4935861;29;20204;-59
2022/08/29 06:04:22;;;;;;;7.85;2.85;;;17.30;99.90;;;;;;4935901;29;20052;-59
2022/08/29 06:06:49;;;;;;;7.20;2.80;;;17.30;99.90;;;;;;4935960;29;20044;-60
2022/08/29 06:09:15;;;;;;;5.95;2.70;;;17.40;99.90;;;;;;4920126;29;20111;-59
2022/08/29 06:11:46;;;;;;;8.43;2.75;;;17.40;99.90;;;;;;4951962;29;20070;-58
2022/08/29 06:14:13;;;;;;;7.25;3.20;;;17.50;99.90;;;;;;4936764;29;20124;-58
2022/08/29 06:16:38;;;;;;;7.85;2.47;;;17.50;99.90;;;;;;4920507;29;20063;-59
2022/08/29 06:19:04;;;;;;;7.45;2.80;;;17.50;99.90;;;;;;4936887;29;20111;-61
2022/08/29 06:21:30;;;;;;;7.25;2.45;;;17.60;99.90;;;;;;4935779;29;20044;-57
2022/08/29 06:23:56;;;;;;;7.57;2.63;;;17.60;99.90;;;;;;4951165;28;20494;-59
2022/08/29 06:26:22;;;;;;;5.72;2.50;;;17.70;99.90;;;;;;4936677;29;20046;-59
2022/08/29 06:28:48;;;;;;;7.40;2.75;;;17.80;99.90;;;;;;4936743;29;20098;-58
2022/08/29 06:31:17;;;;;;;8.43;2.97;;;17.90;99.90;;;;;;4935548;29;20090;-58
2022/08/29 06:33:42;;;;;;;8.73;2.38;;;18.00;99.90;;;;;;4936708;29;20044;-59
2022/08/29 06:36:10;;;;;;;7.65;2.63;;;18.10;99.90;;;;;;4936672;29;20206;-60
2022/08/29 06:38:36;;;;;;;11.23;3.05;;;18.30;99.90;;;;;;4936847;29;20055;-59
2022/08/29 06:41:07;;;;;;;9.50;3.05;;;18.50;99.90;;;;;;4919556;29;20048;-59
2022/08/29 06:43:33;;;;;;;10.18;2.80;;;18.70;99.90;;;;;;4936579;29;20055;-60
2022/08/29 06:45:59;;;;;;;12.15;3.10;;;19.00;99.90;;;;;;4935395;29;20043;-59
2022/08/29 06:48:25;;;;;;;10.40;2.92;;;19.50;99.90;;;;;;4934831;29;20139;-58
2022/08/29 06:50:51;;;;;;;12.02;3.00;;;19.80;99.90;;;;;;4936642;29;20104;-58
2022/08/29 06:53:18;;;;;;;9.80;3.17;;;19.90;99.90;;;;;;4936204;29;20070;-59
2022/08/29 06:55:45;;;;;;;10.95;3.42;;;19.90;99.90;;;;;;4936446;29;20458;-60
2022/08/29 06:58:11;;;;;;;10.98;3.05;;;19.90;99.90;;;;;;4935614;29;20414;-59
2022/08/29 07:00:42;;;;;;;15.35;3.80;;;20.00;99.90;;;;;;4935817;29;20111;-59
2022/08/29 07:03:08;;;;;;;9.20;3.22;;;20.10;99.90;;;;;;4935850;29;20052;-59
2022/08/29 07:05:34;;;;;;;11.45;3.40;;;20.10;99.90;;;;;;4936206;29;20058;-58
2022/08/29 07:08:00;;;;;;;13.60;3.50;;;20.10;99.90;;;;;;4936061;29;20393;-58
2022/08/29 07:10:26;;;;;;;13.90;3.47;;;20.10;99.90;;;;;;4935864;29;20247;-59
2022/08/29 07:12:52;;;;;;;13.43;3.50;;;20.20;99.90;;;;;;4936247;29;20124;-59
2022/08/29 07:15:18;;;;;;;12.07;3.13;;;20.20;99.90;;;;;;4903273;29;20043;-58
2022/08/29 07:17:44;;;;;;;12.10;3.17;;;20.10;99.90;;;;;;4935906;29;20055;-58
2022/08/29 07:20:10;;;;;;;10.32;3.17;;;20.00;99.90;;;;;;4950441;29;20046;-58
2022/08/29 07:22:36;;;;;;;11.07;3.08;;;19.80;99.90;;;;;;4934905;29;20055;-59
2022/08/29 07:25:02;;;;;;;12.57;3.97;;;19.80;99.90;;;;;;4950556;29;20493;-58
2022/08/29 07:27:28;;;;;;;12.73;3.40;;;19.80;99.90;;;;;;4918713;29;20372;-58
2022/08/29 07:29:54;;;;;;;15.95;3.70;;;19.70;99.90;;;;;;4919029;29;20063;-59
2022/08/29 07:32:19;;;;;;;11.52;3.63;;;19.70;99.90;;;;;;4935375;29;20210;-60
2022/08/29 07:34:45;;;;;;;12.02;3.92;;;19.80;99.90;;;;;;4934782;29;20529;-61
2022/08/29 07:37:11;;;;;;;13.20;3.30;;;19.80;99.90;;;;;;4935231;29;20090;-60
2022/08/29 07:39:37;;;;;;;10.18;3.33;;;19.90;99.90;;;;;;4935328;29;20051;-61
2022/08/29 07:42:03;;;;;;;11.75;3.80;;;19.80;99.90;;;;;;4935317;29;20054;-59
2022/08/29 07:44:29;;;;;;;10.52;3.50;;;19.80;99.90;;;;;;4934033;29;20166;-60
2022/08/29 07:46:59;;;;;;;9.75;3.33;;;19.70;99.90;;;;;;4935577;29;20396;-60
2022/08/29 07:49:26;;;;;;;11.88;3.63;;;19.70;99.90;;;;;;4935118;29;20060;-59
2022/08/29 07:51:53;;;;;;;10.73;4.00;;;19.70;99.90;;;;;;4935110;29;20052;-59
2022/08/29 07:54:21;;;;;;;12.35;3.38;;;19.60;99.90;;;;;;4934943;29;20055;-61
2022/08/29 07:56:56;;;;;;;9.50;3.67;;;19.50;99.90;;;;;;5077392;27;20398;-59
2022/08/29 07:59:22;;;;;;;14.20;3.80;;;19.50;99.90;;;;;;5066079;28;20056;-61
2022/08/29 08:01:47;;;;;;;11.23;3.72;;;19.60;99.90;;;;;;5068056;28;20045;-59
2022/08/29 08:04:13;;;;;;;14.80;3.97;;;19.60;99.90;;;;;;5070903;28;20166;-63
2022/08/29 08:06:41;;;;;;;12.27;4.63;;;19.70;99.90;;;;;;5078009;28;20504;-62
2022/08/29 08:09:08;;;;;;;11.27;3.88;;;19.80;99.90;;;;;;5067569;28;20053;-59
2022/08/29 08:11:35;;;;;;;15.52;3.60;;;20.00;99.90;;;;;;5066803;28;20486;-59
2022/08/29 08:14:01;;;;;;;10.02;3.80;;;20.10;99.90;;;;;;5074293;28;20040;-61
2022/08/29 08:16:28;;;;;;;16.40;4.25;;;20.10;99.90;;;;;;5057805;28;20040;-60
2022/08/29 08:18:55;;;;;;;17.60;4.32;;;20.10;99.90;;;;;;5066476;28;20048;-59
2022/08/29 08:21:22;;;;;;;12.10;3.50;;;20.10;99.90;;;;;;5066433;28;20075;-60
2022/08/29 08:23:48;;;;;;;14.80;4.28;;;20.10;99.90;;;;;;5066602;28;20125;-60
2022/08/29 08:26:14;;;;;;;11.30;4.45;;;20.00;99.90;;;;;;5067082;28;20455;-59
2022/08/29 08:28:41;;;;;;;14.20;3.80;;;19.80;99.90;;;;;;5065220;28;20128;-59
2022/08/29 08:31:09;;;;;;;13.13;4.30;;;19.90;99.90;;;;;;5066496;28;20056;-59
2022/08/29 08:33:39;;;;;;;11.95;3.75;;;19.80;99.90;;;;;;5066820;28;20505;-59
2022/08/29 08:36:29;;;;;;;8.88;3.45;;;19.90;99.90;;;;;;5066009;28;20040;-61
2022/08/29 08:38:57;;;;;;;12.98;3.65;;;19.80;99.90;;;;;;5044725;28;20055;-61
2022/08/29 08:41:31;;;;;;;20.17;4.38;;;19.80;99.90;;;;;;5066622;28;20045;-61
2022/08/29 08:44:09;;;;;;;10.82;4.32;;;19.90;99.90;;;;;;5063114;28;20106;-62
2022/08/29 08:46:38;;;;;;;14.73;4.43;;;19.80;99.90;;;;;;5036423;28;20049;-61
2022/08/29 08:49:17;;;;;;;14.70;3.90;;;19.80;99.90;;;;;;5061930;28;20044;-60
2022/08/29 08:51:50;;;;;;;12.40;3.88;;;19.90;99.90;;;;;;5066025;28;20049;-60
2022/08/29 08:54:22;;;;;;;12.07;3.80;;;20.10;99.90;;;;;;5065952;28;20053;-60
2022/08/29 08:56:53;;;;;;;9.95;3.80;;;20.00;99.90;;;;;;5063729;28;20166;-60
2022/08/29 08:59:33;;;;;;;13.07;3.92;;;20.00;99.90;;;;;;5065886;28;20083;-61
2022/08/29 09:02:01;;;;;;;10.90;4.20;;;20.10;99.90;;;;;;5059670;28;20123;-60
2022/08/29 09:04:38;;;;;;;12.85;3.78;;;20.20;99.90;;;;;;5049837;28;20114;-60
2022/08/29 09:07:41;;;;;;;12.30;3.85;;;20.30;99.90;;;;;;5068427;28;20146;-60
2022/08/29 09:10:27;;;;;;;8.50;3.72;;;20.40;99.90;;;;;;5047311;28;20502;-60
2022/08/29 09:13:26;;;;;;;11.10;3.42;;;20.80;99.90;;;;;;5052743;28;20055;-60
2022/08/29 09:15:57;;;;;;;12.75;4.20;;;21.30;99.90;;;;;;5057866;28;20041;-61
2022/08/29 09:18:39;;;;;;;8.82;3.25;;;21.90;99.90;;;;;;5057579;28;20398;-62
2022/08/29 09:21:18;;;;;;;9.43;3.67;;;22.30;99.90;;;;;;5038267;28;20045;-60
2022/08/29 09:23:48;;;;;;;8.05;3.33;;;22.80;99.90;;;;;;5052138;28;20059;-60
2022/08/29 09:26:19;;;;;;;13.25;3.70;;;22.90;99.90;;;;;;5052820;28;20519;-59
2022/08/29 09:28:45;;;;;;;7.25;3.33;;;22.80;99.90;;;;;;5047548;28;20053;-60
2022/08/29 09:31:31;;;;;;;10.23;3.47;;;23.20;99.90;;;;;;5050962;28;20472;-60
2022/08/29 09:34:07;;;;;;;11.20;3.40;;;23.20;99.90;;;;;;5059360;28;20123;-61
2022/08/29 09:36:35;;;;;;;10.70;3.28;;;22.90;99.90;;;;;;5046753;28;20064;-60
2022/08/29 09:39:09;;;;;;;10.32;3.20;;;22.50;99.90;;;;;;5048279;28;20486;-60
2022/08/29 09:41:35;;;;;;;14.18;3.80;;;22.20;99.90;;;;;;5051153;28;20056;-60
2022/08/29 09:44:01;;;;;;;10.02;3.35;;;22.00;99.90;;;;;;5046753;28;20045;-60
2022/08/29 09:46:27;;;;;;;12.35;3.95;;;21.90;99.90;;;;;;5046297;28;20049;-60
2022/08/29 09:49:11;;;;;;;13.70;3.70;;;21.80;99.90;;;;;;5040207;28;20067;-59
2022/08/29 09:51:44;;;;;;;11.93;3.85;;;21.70;99.90;;;;;;5049968;28;20051;-61
2022/08/29 09:54:27;;;;;;;12.33;3.80;;;21.60;99.90;;;;;;5049530;28;20123;-60
2022/08/29 09:57:02;;;;;;;11.82;3.50;;;21.60;99.90;;;;;;5054579;28;20304;-61
2022/08/29 09:59:30;;;;;;;9.07;3.40;;;21.60;99.90;;;;;;5045211;28;20045;-60
2022/08/29 10:02:22;;;;;;;8.40;3.42;;;21.50;99.90;;;;;;5046501;28;20039;-59
2022/08/29 10:04:54;;;;;;;11.63;3.63;;;21.50;99.90;;;;;;5051449;28;20142;-60
2022/08/29 10:07:26;;;;;;;10.75;3.70;;;21.30;99.90;;;;;;5035237;28;20049;-59
2022/08/29 10:10:22;;;;;;;11.77;3.97;;;21.40;99.90;;;;;;5044835;28;20099;-60
2022/08/29 10:13:00;;;;;;;12.75;3.47;;;21.40;99.90;;;;;;5041153;28;20057;-59
2022/08/29 10:15:32;;;;;;;14.43;3.45;;;21.40;99.90;;;;;;5038959;28;20040;-63
2022/08/29 10:18:26;;;;;;;11.07;3.47;;;21.40;99.90;;;;;;5042391;28;20518;-63
2022/08/29 10:21:03;;;;;;;16.10;3.78;;;21.40;99.90;;;;;;5040849;28;20120;-60
2022/08/29 10:23:59;;;;;;;11.88;4.38;;;21.60;99.90;;;;;;5040202;28;20070;-61
2022/08/29 10:26:33;;;;;;;13.40;3.85;;;21.70;99.90;;;;;;5033187;28;20045;-60
2022/08/29 10:28:58;;;;;;;11.87;3.37;;;21.70;99.90;;;;;;5051244;28;20524;-59
2022/08/29 10:31:54;;;;;;;11.90;3.60;;;21.90;99.90;;;;;;5050589;28;20045;-60
2022/08/29 10:34:39;;;;;;;10.82;2.95;;;22.00;99.90;;;;;;5051430;28;20056;-58
2022/08/29 10:37:17;;;;;;;;;;;22.20;99.90;;;;;;5047575;28;20132;-59
2022/08/29 10:40:05;;;;;;;11.93;3.45;;;22.30;99.90;;;;;;5051964;28;20337;-60
2022/08/29 10:42:35;;;;;;;13.85;4.32;;;22.30;99.90;;;;;;5051084;28;20080;-65
2022/08/29 10:45:24;;;;;;;15.55;3.95;;;22.30;99.90;;;;;;5046548;28;20452;-61
2022/08/29 10:48:10;;;;;;;12.38;3.47;;;22.60;99.90;;;;;;5046423;28;20052;-60
2022/08/29 10:50:59;;;;;;;10.70;3.60;;;22.70;99.90;;;;;;5054175;28;20053;-60
2022/08/29 10:53:32;;;;;;;8.57;3.50;;;22.70;99.90;;;;;;5028007;28;20074;-58
2022/08/29 10:56:02;;;;;;;11.18;4.07;;;22.50;99.90;;;;;;5040041;28;20053;-62
2022/08/29 10:58:55;;;;;;;12.77;3.50;;;22.30;99.90;;;;;;5050840;28;20053;-60
2022/08/29 11:01:28;;;;;;;9.88;3.28;;;22.20;99.90;;;;;;5050385;28;20474;-61
2022/08/29 11:04:18;;;;;;;8.93;3.10;;;22.10;99.90;;;;;;5048922;28;20368;-60
2022/08/29 11:06:50;;;;;;;9.88;3.38;;;22.00;99.90;;;;;;5049120;28;20466;-60
2022/08/29 11:09:32;;;;;;;9.30;3.72;;;22.00;99.90;;;;;;5051540;28;20467;-60
2022/08/29 11:12:08;;;;;;;12.10;3.65;;;21.90;99.90;;;;;;5053048;28;20075;-59
2022/08/29 11:14:52;;;;;;;11.73;3.05;;;21.80;99.90;;;;;;5050432;28;20049;-60
2022/08/29 11:17:20;;;;;;;9.98;3.30;;;21.80;99.90;;;;;;5050832;28;20041;-60
2022/08/29 11:20:16;;;;;;;8.70;3.28;;;21.70;99.90;;;;;;5051295;28;20053;-60
2022/08/29 11:22:44;;;;;;;11.55;3.28;;;21.70;99.90;;;;;;5035358;28;20056;-60
2022/08/29 11:25:16;;;;;;;11.15;3.33;;;21.70;99.90;;;;;;5048649;28;20041;-61
2022/08/29 11:28:02;;;;;;;10.13;3.03;;;21.70;99.90;;;;;;5031940;28;20106;-60
2022/08/29 11:30:42;;;;;;;10.90;3.42;;;21.60;99.90;;;;;;5051609;28;20405;-61
2022/08/29 11:33:39;;;;;;;10.48;3.40;;;21.60;99.90;;;;;;5038341;28;20053;-61
2022/08/29 11:36:16;;;;;;;11.32;3.42;;;21.60;99.90;;;;;;5039659;28;20094;-62
2022/08/29 11:38:52;;;;;;;12.75;3.22;;;21.60;99.90;;;;;;5050029;28;20102;-61
2022/08/29 11:41:31;;;;;;;9.23;2.78;;;21.60;99.90;;;;;;5046938;28;20045;-60
2022/08/29 11:44:26;;;;;;;6.63;2.58;;;21.60;99.90;;;;;;5048682;28;20049;-60
2022/08/29 11:46:53;;;;;;;10.90;3.30;;;21.60;99.90;;;;;;5044861;28;20423;-60
2022/08/29 11:49:25;;;;;;;9.23;3.33;;;21.70;99.90;;;;;;5050313;28;20055;-60
2022/08/29 11:51:55;;;;;;;9.70;2.65;;;21.70;99.90;;;;;;5046522;28;20045;-61
2022/08/29 11:54:24;;;;;;;9.52;3.03;;;21.70;99.90;;;;;;5036768;28;20060;-61
2022/08/29 11:57:10;;;;;;;10.60;2.72;;;21.80;99.90;;;;;;5044887;28;20064;-60
2022/08/29 11:59:48;;;;;;;8.70;2.42;;;21.80;99.90;;;;;;5034271;28;20394;-60
2022/08/29 12:02:29;;;;;;;7.78;2.75;;;21.90;99.90;;;;;;5050197;28;20561;-60
2022/08/29 12:04:56;;;;;;;8.70;2.90;;;21.90;99.90;;;;;;5045550;28;20254;-64
2022/08/29 12:07:40;;;;;;;7.20;2.70;;;21.90;99.90;;;;;;5047137;28;20041;-59
2022/08/29 12:10:10;;;;;;;;;;;21.90;99.90;;;;;;5042453;28;20060;-60
2022/08/29 12:12:41;;;;;;;9.45;3.00;;;21.90;99.90;;;;;;5051933;28;19928;-60
2022/08/29 12:15:28;;;;;;;8.30;2.95;;;21.90;99.90;;;;;;5043407;28;20099;-59
2022/08/29 12:17:56;;;;;;;10.50;3.00;;;21.90;99.90;;;;;;5041702;28;20536;-59
2022/08/29 12:20:34;;;;;;;8.63;2.72;;;21.90;99.90;;;;;;5049647;28;20101;-61
2022/08/29 12:23:16;;;;;;;10.35;2.95;;;21.90;99.90;;;;;;5049280;28;20048;-59
2022/08/29 12:25:59;;;;;;;7.68;2.83;;;21.90;99.90;;;;;;5048089;28;20052;-65
2022/08/29 12:28:46;;;;;;;6.55;2.60;;;21.90;99.90;;;;;;5047711;28;20041;-60
2022/08/29 12:31:30;;;;;;;8.68;2.90;;;21.90;99.90;;;;;;5043366;28;20045;-59
2022/08/29 12:34:22;;;;;;;7.88;2.80;;;21.90;99.90;;;;;;5041638;28;20083;-63
2022/08/29 12:37:12;;;;;;;8.00;2.80;;;21.90;99.90;;;;;;5047913;28;20143;-61
2022/08/29 12:40:08;;;;;;;5.80;2.30;;;21.90;99.90;;;;;;5048481;28;20053;-64
2022/08/29 12:42:55;;;;;;;10.38;2.78;;;21.80;99.90;;;;;;5048594;28;20043;-61
2022/08/29 12:45:26;;;;;;;7.45;2.55;;;21.90;99.90;;;;;;5046989;28;20056;-65
2022/08/29 12:48:03;;;;;;;7.95;2.83;;;21.90;99.90;;;;;;5050692;28;20045;-60
2022/08/29 12:50:44;;;;;;;7.90;2.80;;;21.90;99.90;;;;;;5067746;28;20053;-60
2022/08/29 12:53:23;;;;;;;9.68;2.60;;;21.90;99.90;;;;;;5052991;28;20049;-59
2022/08/29 12:55:58;;;;;;;5.70;2.58;;;21.90;99.90;;;;;;5046611;28;20053;-60
2022/08/29 12:58:36;;;;;;;8.23;2.60;;;21.90;99.90;;;;;;5051815;28;20127;-59
2022/08/29 13:01:05;;;;;;;7.35;2.40;;;21.80;99.90;;;;;;5052687;28;20064;-59
2022/08/29 13:03:32;;;;;;;10.73;2.65;;;21.90;99.90;;;;;;5053083;28;20048;-60
2022/08/29 13:06:12;;;;;;;7.32;2.42;;;21.90;99.90;;;;;;5048029;28;20071;-59